sensor_id;sensor_type;location;lat;lon;timestamp;P1;durP1;ratioP1;P2;durP2;ratioP2
43901;SDS011;29562;40.390;-3.706;2022-10-22T00:04:42;6.30;;;1.48;;
43901;SDS011;29562;40.390;-3.706;2022-10-22T00:14:44;4.72;;;1.35;;
43901;SDS011;29562;40.390;-3.706;2022-10-22T00:24:47;5.00;;;1.42;;
43901;SDS011;29562;40.390;-3.706;2022-10-22T00:34:49;6.30;;;1.67;;
43901;SDS011;29562;40.390;-3.706;2022-10-22T00:55:07;11.13;;;2.20;;
43901;SDS011;29562;40.390;-3.706;2022-10-22T01:05:10;4.40;;;1.27;;
43901;SDS011;29562;40.390;-3.706;2022-10-22T01:15:27;5.72;;;1.73;;
43901;SDS011;29562;40.390;-3.706;2022-10-22T01:25:47;6.00;;;2.50;;
43901;SDS011;29562;40.390;-3.706;2022-10-22T01:35:51;5.30;;;1.90;;
43901;SDS011;29562;40.390;-3.706;2022-10-22T01:45:58;4.03;;;1.70;;
43901;SDS011;29562;40.390;-3.706;2022-10-22T02:06:32;5.68;;;2.53;;
43901;SDS011;29562;40.390;-3.706;2022-10-22T02:16:48;6.90;;;2.55;;
43901;SDS011;29562;40.390;-3.706;2022-10-22T02:27:00;8.10;;;2.10;;
43901;SDS011;29562;40.390;-3.706;2022-10-22T02:37:16;5.28;;;2.05;;
43901;SDS011;29562;40.390;-3.706;2022-10-22T02:47:23;5.07;;;1.75;;
43901;SDS011;29562;40.390;-3.706;2022-10-22T02:57:25;4.82;;;1.65;;
43901;SDS011;29562;40.390;-3.706;2022-10-22T03:07:28;3.22;;;1.10;;
43901;SDS011;29562;40.390;-3.706;2022-10-22T03:17:30;3.50;;;1.33;;
43901;SDS011;29562;40.390;-3.706;2022-10-22T03:27:37;2.75;;;1.60;;
43901;SDS011;29562;40.390;-3.706;2022-10-22T03:37:40;4.00;;;1.65;;
43901;SDS011;29562;40.390;-3.706;2022-10-22T03:47:43;4.97;;;1.80;;
43901;SDS011;29562;40.390;-3.706;2022-10-22T03:57:47;3.42;;;1.10;;
43901;SDS011;29562;40.390;-3.706;2022-10-22T04:07:49;2.75;;;0.95;;
43901;SDS011;29562;40.390;-3.706;2022-10-22T04:17:51;6.22;;;1.42;;
43901;SDS011;29562;40.390;-3.706;2022-10-22T04:27:53;3.85;;;2.08;;
43901;SDS011;29562;40.390;-3.706;2022-10-22T04:37:56;3.58;;;2.50;;
43901;SDS011;29562;40.390;-3.706;2022-10-22T04:48:03;5.50;;;2.88;;
43901;SDS011;29562;40.390;-3.706;2022-10-22T04:58:05;4.55;;;2.30;;
43901;SDS011;29562;40.390;-3.706;2022-10-22T05:08:07;5.82;;;2.42;;
43901;SDS011;29562;40.390;-3.706;2022-10-22T05:18:09;4.20;;;2.00;;
43901;SDS011;29562;40.390;-3.706;2022-10-22T05:28:11;5.72;;;2.40;;
43901;SDS011;29562;40.390;-3.706;2022-10-22T05:38:14;4.43;;;2.40;;
43901;SDS011;29562;40.390;-3.706;2022-10-22T05:48:16;5.90;;;2.33;;
43901;SDS011;29562;40.390;-3.706;2022-10-22T05:58:18;5.28;;;3.10;;
43901;SDS011;29562;40.390;-3.706;2022-10-22T06:08:21;7.68;;;3.55;;
43901;SDS011;29562;40.390;-3.706;2022-10-22T06:18:23;5.07;;;3.22;;
43901;SDS011;29562;40.390;-3.706;2022-10-22T06:28:25;6.90;;;3.38;;
43901;SDS011;29562;40.390;-3.706;2022-10-22T06:38:27;7.32;;;3.92;;
43901;SDS011;29562;40.390;-3.706;2022-10-22T06:48:30;7.65;;;3.25;;
43901;SDS011;29562;40.390;-3.706;2022-10-22T06:58:32;7.63;;;4.35;;
43901;SDS011;29562;40.390;-3.706;2022-10-22T07:08:35;12.88;;;6.05;;
43901;SDS011;29562;40.390;-3.706;2022-10-22T07:18:37;15.20;;;7.25;;
43901;SDS011;29562;40.390;-3.706;2022-10-22T07:28:40;8.75;;;5.60;;
43901;SDS011;29562;40.390;-3.706;2022-10-22T07:38:45;13.50;;;5.13;;
43901;SDS011;29562;40.390;-3.706;2022-10-22T07:48:48;18.92;;;9.95;;
43901;SDS011;29562;40.390;-3.706;2022-10-22T07:58:50;11.07;;;7.45;;
43901;SDS011;29562;40.390;-3.706;2022-10-22T08:08:52;22.98;;;16.42;;
43901;SDS011;29562;40.390;-3.706;2022-10-22T08:18:54;12.27;;;5.45;;
43901;SDS011;29562;40.390;-3.706;2022-10-22T08:28:57;6.70;;;3.83;;
43901;SDS011;29562;40.390;-3.706;2022-10-22T08:38:59;8.00;;;4.13;;
43901;SDS011;29562;40.390;-3.706;2022-10-22T08:49:02;8.40;;;3.42;;
43901;SDS011;29562;40.390;-3.706;2022-10-22T09:09:14;6.35;;;3.42;;
43901;SDS011;29562;40.390;-3.706;2022-10-22T09:29:20;6.53;;;3.97;;
43901;SDS011;29562;40.390;-3.706;2022-10-22T09:39:26;4.45;;;1.50;;
43901;SDS011;29562;40.390;-3.706;2022-10-22T09:49:29;6.30;;;3.60;;
43901;SDS011;29562;40.390;-3.706;2022-10-22T09:59:37;6.45;;;3.72;;
43901;SDS011;29562;40.390;-3.706;2022-10-22T10:09:41;6.88;;;2.90;;
43901;SDS011;29562;40.390;-3.706;2022-10-22T10:20:02;7.93;;;3.75;;
43901;SDS011;29562;40.390;-3.706;2022-10-22T10:30:14;7.32;;;2.42;;
43901;SDS011;29562;40.390;-3.706;2022-10-22T11:11:42;4.80;;;2.97;;
43901;SDS011;29562;40.390;-3.706;2022-10-22T11:21:49;8.20;;;2.83;;
43901;SDS011;29562;40.390;-3.706;2022-10-22T11:31:54;6.03;;;2.70;;
43901;SDS011;29562;40.390;-3.706;2022-10-22T11:41:58;5.30;;;2.72;;
43901;SDS011;29562;40.390;-3.706;2022-10-22T11:52:12;6.18;;;2.13;;
43901;SDS011;29562;40.390;-3.706;2022-10-22T12:02:44;4.90;;;1.67;;
43901;SDS011;29562;40.390;-3.706;2022-10-22T12:12:51;6.10;;;2.22;;
43901;SDS011;29562;40.390;-3.706;2022-10-22T12:22:53;6.00;;;1.63;;
43901;SDS011;29562;40.390;-3.706;2022-10-22T12:32:58;3.80;;;2.05;;
43901;SDS011;29562;40.390;-3.706;2022-10-22T12:43:01;3.80;;;1.75;;
43901;SDS011;29562;40.390;-3.706;2022-10-22T12:53:04;6.85;;;2.55;;
43901;SDS011;29562;40.390;-3.706;2022-10-22T13:03:05;4.65;;;1.98;;
43901;SDS011;29562;40.390;-3.706;2022-10-22T13:13:27;5.53;;;2.10;;
43901;SDS011;29562;40.390;-3.706;2022-10-22T13:23:29;3.00;;;1.48;;
43901;SDS011;29562;40.390;-3.706;2022-10-22T13:33:34;6.03;;;2.30;;
43901;SDS011;29562;40.390;-3.706;2022-10-22T13:43:35;6.18;;;1.77;;
43901;SDS011;29562;40.390;-3.706;2022-10-22T13:53:37;5.75;;;1.65;;
43901;SDS011;29562;40.390;-3.706;2022-10-22T14:03:38;5.35;;;1.85;;
43901;SDS011;29562;40.390;-3.706;2022-10-22T14:13:40;3.78;;;1.55;;
43901;SDS011;29562;40.390;-3.706;2022-10-22T14:23:44;4.45;;;1.58;;
43901;SDS011;29562;40.390;-3.706;2022-10-22T14:33:46;4.28;;;1.40;;
43901;SDS011;29562;40.390;-3.706;2022-10-22T14:43:50;4.20;;;1.90;;
43901;SDS011;29562;40.390;-3.706;2022-10-22T14:53:52;4.05;;;1.42;;
43901;SDS011;29562;40.390;-3.706;2022-10-22T15:03:54;2.75;;;1.10;;
43901;SDS011;29562;40.390;-3.706;2022-10-22T15:13:57;1.80;;;0.90;;
43901;SDS011;29562;40.390;-3.706;2022-10-22T15:24:00;1.67;;;0.90;;
43901;SDS011;29562;40.390;-3.706;2022-10-22T15:34:02;3.10;;;1.10;;
43901;SDS011;29562;40.390;-3.706;2022-10-22T15:44:04;1.77;;;0.70;;
43901;SDS011;29562;40.390;-3.706;2022-10-22T15:54:26;3.78;;;0.90;;
43901;SDS011;29562;40.390;-3.706;2022-10-22T16:04:28;1.85;;;0.82;;
43901;SDS011;29562;40.390;-3.706;2022-10-22T16:14:30;2.28;;;0.70;;
43901;SDS011;29562;40.390;-3.706;2022-10-22T16:24:32;2.58;;;0.85;;
43901;SDS011;29562;40.390;-3.706;2022-10-22T16:34:34;6.32;;;2.20;;
43901;SDS011;29562;40.390;-3.706;2022-10-22T16:44:36;3.35;;;0.95;;
43901;SDS011;29562;40.390;-3.706;2022-10-22T16:54:38;2.63;;;0.90;;
43901;SDS011;29562;40.390;-3.706;2022-10-22T17:04:40;4.15;;;1.00;;
43901;SDS011;29562;40.390;-3.706;2022-10-22T17:14:43;6.00;;;1.23;;
43901;SDS011;29562;40.390;-3.706;2022-10-22T17:24:45;7.68;;;3.50;;
43901;SDS011;29562;40.390;-3.706;2022-10-22T17:34:47;1.85;;;0.63;;
43901;SDS011;29562;40.390;-3.706;2022-10-22T17:44:49;7.55;;;4.10;;
43901;SDS011;29562;40.390;-3.706;2022-10-22T17:54:51;4.10;;;0.73;;
43901;SDS011;29562;40.390;-3.706;2022-10-22T18:04:54;0.75;;;0.47;;
43901;SDS011;29562;40.390;-3.706;2022-10-22T18:14:56;1.05;;;0.20;;
43901;SDS011;29562;40.390;-3.706;2022-10-22T18:24:58;0.80;;;0.28;;
43901;SDS011;29562;40.390;-3.706;2022-10-22T18:35:00;1.00;;;0.40;;
43901;SDS011;29562;40.390;-3.706;2022-10-22T18:45:02;2.13;;;0.70;;
43901;SDS011;29562;40.390;-3.706;2022-10-22T18:55:04;3.28;;;0.52;;
43901;SDS011;29562;40.390;-3.706;2022-10-22T19:05:06;3.95;;;0.60;;
43901;SDS011;29562;40.390;-3.706;2022-10-22T19:15:08;1.73;;;0.60;;
43901;SDS011;29562;40.390;-3.706;2022-10-22T19:25:10;2.50;;;0.60;;
43901;SDS011;29562;40.390;-3.706;2022-10-22T19:35:12;2.15;;;0.52;;
43901;SDS011;29562;40.390;-3.706;2022-10-22T19:45:14;3.45;;;1.23;;
43901;SDS011;29562;40.390;-3.706;2022-10-22T19:55:17;2.10;;;0.90;;
43901;SDS011;29562;40.390;-3.706;2022-10-22T20:05:19;3.03;;;0.63;;
43901;SDS011;29562;40.390;-3.706;2022-10-22T20:15:21;1.20;;;0.63;;
43901;SDS011;29562;40.390;-3.706;2022-10-22T20:25:23;2.17;;;0.60;;
43901;SDS011;29562;40.390;-3.706;2022-10-22T20:35:25;1.65;;;0.73;;
43901;SDS011;29562;40.390;-3.706;2022-10-22T20:45:27;2.95;;;0.93;;
43901;SDS011;29562;40.390;-3.706;2022-10-22T20:55:29;7.75;;;4.03;;
43901;SDS011;29562;40.390;-3.706;2022-10-22T21:05:31;3.53;;;1.98;;
43901;SDS011;29562;40.390;-3.706;2022-10-22T21:15:34;3.50;;;1.63;;
43901;SDS011;29562;40.390;-3.706;2022-10-22T21:25:37;3.33;;;1.15;;
43901;SDS011;29562;40.390;-3.706;2022-10-22T21:35:39;3.05;;;1.80;;
43901;SDS011;29562;40.390;-3.706;2022-10-22T21:45:41;2.72;;;1.50;;
43901;SDS011;29562;40.390;-3.706;2022-10-22T21:55:43;4.95;;;1.40;;
43901;SDS011;29562;40.390;-3.706;2022-10-22T22:05:45;6.35;;;1.20;;
43901;SDS011;29562;40.390;-3.706;2022-10-22T22:15:47;3.67;;;0.93;;
43901;SDS011;29562;40.390;-3.706;2022-10-22T22:25:49;2.25;;;0.68;;
43901;SDS011;29562;40.390;-3.706;2022-10-22T22:35:52;1.63;;;0.57;;
43901;SDS011;29562;40.390;-3.706;2022-10-22T22:46:02;0.82;;;0.60;;
43901;SDS011;29562;40.390;-3.706;2022-10-22T22:56:05;1.65;;;0.60;;
43901;SDS011;29562;40.390;-3.706;2022-10-22T23:06:08;2.08;;;0.70;;
43901;SDS011;29562;40.390;-3.706;2022-10-22T23:26:19;1.67;;;0.88;;
43901;SDS011;29562;40.390;-3.706;2022-10-22T23:36:22;1.67;;;0.88;;
43901;SDS011;29562;40.390;-3.706;2022-10-22T23:46:24;2.85;;;1.00;;
43901;SDS011;29562;40.390;-3.706;2022-10-22T23:56:26;2.15;;;0.90;;
